sensor_id;sensor_type;location;lat;lon;timestamp;P1;durP1;ratioP1;P2;durP2;ratioP2
5428;SDS011;2737;52.386;9.980;2023-06-22T00:01:17;13.60;;;11.80;;
5428;SDS011;2737;52.386;9.980;2023-06-22T00:03:44;13.03;;;11.50;;
5428;SDS011;2737;52.386;9.980;2023-06-22T00:06:11;13.83;;;12.20;;
5428;SDS011;2737;52.386;9.980;2023-06-22T00:08:38;16.53;;;13.47;;
5428;SDS011;2737;52.386;9.980;2023-06-22T00:11:06;13.33;;;11.93;;
5428;SDS011;2737;52.386;9.980;2023-06-22T00:13:34;18.70;;;13.90;;
5428;SDS011;2737;52.386;9.980;2023-06-22T00:16:01;16.97;;;13.33;;
5428;SDS011;2737;52.386;9.980;2023-06-22T00:18:28;16.13;;;13.47;;
5428;SDS011;2737;52.386;9.980;2023-06-22T00:20:56;15.67;;;13.40;;
5428;SDS011;2737;52.386;9.980;2023-06-22T00:23:24;15.87;;;14.07;;
5428;SDS011;2737;52.386;9.980;2023-06-22T00:25:51;17.87;;;14.33;;
5428;SDS011;2737;52.386;9.980;2023-06-22T00:28:18;18.73;;;14.70;;
5428;SDS011;2737;52.386;9.980;2023-06-22T00:30:48;16.30;;;14.00;;
5428;SDS011;2737;52.386;9.980;2023-06-22T00:33:15;17.17;;;14.07;;
5428;SDS011;2737;52.386;9.980;2023-06-22T00:35:42;15.90;;;13.17;;
5428;SDS011;2737;52.386;9.980;2023-06-22T00:38:09;19.40;;;14.13;;
5428;SDS011;2737;52.386;9.980;2023-06-22T00:40:37;18.00;;;13.30;;
5428;SDS011;2737;52.386;9.980;2023-06-22T00:43:04;17.17;;;13.20;;
5428;SDS011;2737;52.386;9.980;2023-06-22T00:45:32;16.50;;;13.83;;
5428;SDS011;2737;52.386;9.980;2023-06-22T00:48:00;18.23;;;15.13;;
5428;SDS011;2737;52.386;9.980;2023-06-22T00:50:30;19.57;;;14.53;;
5428;SDS011;2737;52.386;9.980;2023-06-22T00:53:00;17.60;;;14.60;;
5428;SDS011;2737;52.386;9.980;2023-06-22T00:55:33;17.20;;;14.20;;
5428;SDS011;2737;52.386;9.980;2023-06-22T00:58:02;16.47;;;14.10;;
5428;SDS011;2737;52.386;9.980;2023-06-22T01:00:30;23.33;;;14.40;;
5428;SDS011;2737;52.386;9.980;2023-06-22T01:02:58;15.80;;;14.10;;
5428;SDS011;2737;52.386;9.980;2023-06-22T01:05:26;21.00;;;15.00;;
5428;SDS011;2737;52.386;9.980;2023-06-22T01:07:58;21.90;;;15.00;;
5428;SDS011;2737;52.386;9.980;2023-06-22T01:10:34;16.23;;;13.80;;
5428;SDS011;2737;52.386;9.980;2023-06-22T01:13:07;17.10;;;12.83;;
5428;SDS011;2737;52.386;9.980;2023-06-22T01:15:43;16.13;;;12.97;;
5428;SDS011;2737;52.386;9.980;2023-06-22T01:18:14;17.23;;;13.73;;
5428;SDS011;2737;52.386;9.980;2023-06-22T01:20:46;16.80;;;14.03;;
5428;SDS011;2737;52.386;9.980;2023-06-22T01:23:17;23.07;;;13.20;;
5428;SDS011;2737;52.386;9.980;2023-06-22T01:25:54;16.50;;;13.80;;
5428;SDS011;2737;52.386;9.980;2023-06-22T01:28:46;14.67;;;12.30;;
5428;SDS011;2737;52.386;9.980;2023-06-22T01:31:16;15.80;;;13.40;;
5428;SDS011;2737;52.386;9.980;2023-06-22T01:33:47;16.20;;;12.57;;
5428;SDS011;2737;52.386;9.980;2023-06-22T01:36:25;15.87;;;12.50;;
5428;SDS011;2737;52.386;9.980;2023-06-22T01:38:53;15.53;;;12.60;;
5428;SDS011;2737;52.386;9.980;2023-06-22T01:41:20;16.40;;;13.40;;
5428;SDS011;2737;52.386;9.980;2023-06-22T01:43:50;14.83;;;11.80;;
5428;SDS011;2737;52.386;9.980;2023-06-22T01:46:18;16.93;;;13.50;;
5428;SDS011;2737;52.386;9.980;2023-06-22T01:48:46;15.17;;;12.10;;
5428;SDS011;2737;52.386;9.980;2023-06-22T01:51:13;15.47;;;12.23;;
5428;SDS011;2737;52.386;9.980;2023-06-22T01:53:41;15.00;;;12.10;;
5428;SDS011;2737;52.386;9.980;2023-06-22T01:56:08;15.77;;;12.30;;
5428;SDS011;2737;52.386;9.980;2023-06-22T01:58:36;17.13;;;11.63;;
5428;SDS011;2737;52.386;9.980;2023-06-22T02:01:17;13.10;;;11.57;;
5428;SDS011;2737;52.386;9.980;2023-06-22T02:03:52;14.80;;;9.73;;
5428;SDS011;2737;52.386;9.980;2023-06-22T02:06:24;14.80;;;10.60;;
5428;SDS011;2737;52.386;9.980;2023-06-22T02:09:02;16.83;;;10.50;;
5428;SDS011;2737;52.386;9.980;2023-06-22T02:11:34;13.50;;;10.87;;
5428;SDS011;2737;52.386;9.980;2023-06-22T02:14:03;12.93;;;9.37;;
5428;SDS011;2737;52.386;9.980;2023-06-22T02:16:34;12.80;;;10.00;;
5428;SDS011;2737;52.386;9.980;2023-06-22T02:19:03;12.70;;;10.07;;
5428;SDS011;2737;52.386;9.980;2023-06-22T02:21:31;12.93;;;9.97;;
5428;SDS011;2737;52.386;9.980;2023-06-22T02:23:58;13.33;;;10.70;;
5428;SDS011;2737;52.386;9.980;2023-06-22T02:26:25;15.53;;;10.20;;
5428;SDS011;2737;52.386;9.980;2023-06-22T02:28:53;17.30;;;10.07;;
5428;SDS011;2737;52.386;9.980;2023-06-22T02:31:20;16.00;;;11.83;;
5428;SDS011;2737;52.386;9.980;2023-06-22T02:33:49;11.00;;;9.03;;
5428;SDS011;2737;52.386;9.980;2023-06-22T02:36:16;12.50;;;10.90;;
5428;SDS011;2737;52.386;9.980;2023-06-22T02:38:47;11.90;;;9.90;;
5428;SDS011;2737;52.386;9.980;2023-06-22T02:41:15;16.10;;;10.73;;
5428;SDS011;2737;52.386;9.980;2023-06-22T02:43:44;13.47;;;9.70;;
5428;SDS011;2737;52.386;9.980;2023-06-22T02:46:11;12.47;;;10.47;;
5428;SDS011;2737;52.386;9.980;2023-06-22T02:48:39;15.37;;;10.00;;
5428;SDS011;2737;52.386;9.980;2023-06-22T02:51:08;13.40;;;10.10;;
5428;SDS011;2737;52.386;9.980;2023-06-22T02:53:35;17.67;;;10.07;;
5428;SDS011;2737;52.386;9.980;2023-06-22T02:56:02;12.40;;;9.93;;
5428;SDS011;2737;52.386;9.980;2023-06-22T02:58:30;12.00;;;10.10;;
5428;SDS011;2737;52.386;9.980;2023-06-22T03:01:03;11.93;;;9.73;;
5428;SDS011;2737;52.386;9.980;2023-06-22T03:03:30;16.27;;;9.97;;
5428;SDS011;2737;52.386;9.980;2023-06-22T03:05:58;12.00;;;9.27;;
5428;SDS011;2737;52.386;9.980;2023-06-22T03:08:27;11.47;;;8.63;;
5428;SDS011;2737;52.386;9.980;2023-06-22T03:10:54;9.37;;;8.00;;
5428;SDS011;2737;52.386;9.980;2023-06-22T03:13:21;14.17;;;8.57;;
5428;SDS011;2737;52.386;9.980;2023-06-22T03:15:49;10.13;;;9.00;;
5428;SDS011;2737;52.386;9.980;2023-06-22T03:18:16;9.57;;;8.27;;
5428;SDS011;2737;52.386;9.980;2023-06-22T03:20:43;14.53;;;9.30;;
5428;SDS011;2737;52.386;9.980;2023-06-22T03:23:10;10.17;;;8.53;;
5428;SDS011;2737;52.386;9.980;2023-06-22T03:25:38;11.63;;;9.17;;
5428;SDS011;2737;52.386;9.980;2023-06-22T03:28:05;12.80;;;9.10;;
5428;SDS011;2737;52.386;9.980;2023-06-22T03:30:32;10.30;;;8.60;;
5428;SDS011;2737;52.386;9.980;2023-06-22T03:32:59;11.50;;;9.23;;
5428;SDS011;2737;52.386;9.980;2023-06-22T03:35:26;12.90;;;9.20;;
5428;SDS011;2737;52.386;9.980;2023-06-22T03:37:53;11.33;;;9.00;;
5428;SDS011;2737;52.386;9.980;2023-06-22T03:40:20;11.40;;;8.73;;
5428;SDS011;2737;52.386;9.980;2023-06-22T03:42:48;14.67;;;10.33;;
5428;SDS011;2737;52.386;9.980;2023-06-22T03:45:16;19.40;;;9.77;;
5428;SDS011;2737;52.386;9.980;2023-06-22T03:47:43;11.47;;;9.43;;
5428;SDS011;2737;52.386;9.980;2023-06-22T03:50:10;10.43;;;9.00;;
5428;SDS011;2737;52.386;9.980;2023-06-22T03:52:38;13.00;;;9.03;;
5428;SDS011;2737;52.386;9.980;2023-06-22T03:55:06;12.77;;;9.30;;
5428;SDS011;2737;52.386;9.980;2023-06-22T03:57:34;11.10;;;9.03;;
5428;SDS011;2737;52.386;9.980;2023-06-22T04:00:02;15.17;;;9.47;;
5428;SDS011;2737;52.386;9.980;2023-06-22T04:02:31;12.13;;;9.00;;
5428;SDS011;2737;52.386;9.980;2023-06-22T04:04:58;12.23;;;9.73;;
5428;SDS011;2737;52.386;9.980;2023-06-22T04:07:25;11.90;;;9.70;;
5428;SDS011;2737;52.386;9.980;2023-06-22T04:09:52;12.37;;;9.63;;
5428;SDS011;2737;52.386;9.980;2023-06-22T04:12:19;11.50;;;9.50;;
5428;SDS011;2737;52.386;9.980;2023-06-22T04:14:46;12.00;;;9.80;;
5428;SDS011;2737;52.386;9.980;2023-06-22T04:17:14;11.70;;;9.67;;
5428;SDS011;2737;52.386;9.980;2023-06-22T04:19:42;13.93;;;9.07;;
5428;SDS011;2737;52.386;9.980;2023-06-22T04:22:09;14.20;;;9.00;;
5428;SDS011;2737;52.386;9.980;2023-06-22T04:24:37;10.47;;;8.53;;
5428;SDS011;2737;52.386;9.980;2023-06-22T04:27:04;10.37;;;8.30;;
5428;SDS011;2737;52.386;9.980;2023-06-22T04:29:31;10.83;;;7.90;;
5428;SDS011;2737;52.386;9.980;2023-06-22T04:31:58;13.53;;;9.23;;
5428;SDS011;2737;52.386;9.980;2023-06-22T04:34:32;11.80;;;9.00;;
5428;SDS011;2737;52.386;9.980;2023-06-22T04:36:59;13.10;;;9.07;;
5428;SDS011;2737;52.386;9.980;2023-06-22T04:39:26;16.00;;;9.97;;
5428;SDS011;2737;52.386;9.980;2023-06-22T04:41:53;12.80;;;9.50;;
5428;SDS011;2737;52.386;9.980;2023-06-22T04:44:25;11.80;;;9.60;;
5428;SDS011;2737;52.386;9.980;2023-06-22T04:46:52;15.80;;;10.20;;
5428;SDS011;2737;52.386;9.980;2023-06-22T04:49:25;12.30;;;9.77;;
5428;SDS011;2737;52.386;9.980;2023-06-22T04:51:59;14.30;;;9.53;;
5428;SDS011;2737;52.386;9.980;2023-06-22T04:54:26;15.30;;;9.27;;
5428;SDS011;2737;52.386;9.980;2023-06-22T04:56:53;11.50;;;9.57;;
5428;SDS011;2737;52.386;9.980;2023-06-22T04:59:22;12.13;;;9.67;;
5428;SDS011;2737;52.386;9.980;2023-06-22T05:01:53;13.70;;;8.80;;
5428;SDS011;2737;52.386;9.980;2023-06-22T05:04:21;11.07;;;9.30;;
5428;SDS011;2737;52.386;9.980;2023-06-22T05:06:49;10.37;;;8.17;;
5428;SDS011;2737;52.386;9.980;2023-06-22T05:09:17;10.93;;;8.57;;
5428;SDS011;2737;52.386;9.980;2023-06-22T05:11:44;11.37;;;8.70;;
5428;SDS011;2737;52.386;9.980;2023-06-22T05:14:12;14.00;;;8.90;;
5428;SDS011;2737;52.386;9.980;2023-06-22T05:16:39;11.37;;;9.13;;
5428;SDS011;2737;52.386;9.980;2023-06-22T05:19:07;13.33;;;8.73;;
5428;SDS011;2737;52.386;9.980;2023-06-22T05:21:34;12.40;;;8.83;;
5428;SDS011;2737;52.386;9.980;2023-06-22T05:24:01;11.50;;;8.13;;
5428;SDS011;2737;52.386;9.980;2023-06-22T05:26:31;10.03;;;8.30;;
5428;SDS011;2737;52.386;9.980;2023-06-22T05:28:58;11.40;;;8.77;;
5428;SDS011;2737;52.386;9.980;2023-06-22T05:31:26;10.33;;;8.33;;
5428;SDS011;2737;52.386;9.980;2023-06-22T05:33:53;9.83;;;8.27;;
5428;SDS011;2737;52.386;9.980;2023-06-22T05:36:21;13.17;;;9.67;;
5428;SDS011;2737;52.386;9.980;2023-06-22T05:38:50;13.80;;;9.17;;
5428;SDS011;2737;52.386;9.980;2023-06-22T05:41:17;13.10;;;8.70;;
5428;SDS011;2737;52.386;9.980;2023-06-22T05:43:46;12.43;;;9.40;;
5428;SDS011;2737;52.386;9.980;2023-06-22T05:46:13;11.77;;;9.10;;
5428;SDS011;2737;52.386;9.980;2023-06-22T05:48:40;11.97;;;8.70;;
5428;SDS011;2737;52.386;9.980;2023-06-22T05:51:07;11.97;;;8.73;;
5428;SDS011;2737;52.386;9.980;2023-06-22T05:53:34;12.80;;;9.07;;
5428;SDS011;2737;52.386;9.980;2023-06-22T05:56:01;11.27;;;8.60;;
5428;SDS011;2737;52.386;9.980;2023-06-22T05:58:29;10.60;;;9.07;;
5428;SDS011;2737;52.386;9.980;2023-06-22T06:00:57;11.07;;;8.63;;
5428;SDS011;2737;52.386;9.980;2023-06-22T06:03:25;10.97;;;8.50;;
5428;SDS011;2737;52.386;9.980;2023-06-22T06:05:53;8.60;;;7.67;;
5428;SDS011;2737;52.386;9.980;2023-06-22T06:08:20;11.23;;;9.20;;
5428;SDS011;2737;52.386;9.980;2023-06-22T06:10:48;10.82;;;9.02;;
5428;SDS011;2737;52.386;9.980;2023-06-22T06:13:15;11.20;;;8.50;;
5428;SDS011;2737;52.386;9.980;2023-06-22T06:15:42;10.73;;;8.37;;
5428;SDS011;2737;52.386;9.980;2023-06-22T06:18:10;11.23;;;8.07;;
5428;SDS011;2737;52.386;9.980;2023-06-22T06:20:38;10.80;;;9.05;;
5428;SDS011;2737;52.386;9.980;2023-06-22T06:23:05;10.10;;;7.97;;
5428;SDS011;2737;52.386;9.980;2023-06-22T06:25:32;10.07;;;8.40;;
5428;SDS011;2737;52.386;9.980;2023-06-22T06:27:59;12.05;;;7.57;;
5428;SDS011;2737;52.386;9.980;2023-06-22T06:30:26;13.07;;;8.93;;
5428;SDS011;2737;52.386;9.980;2023-06-22T06:32:53;11.03;;;7.20;;
5428;SDS011;2737;52.386;9.980;2023-06-22T06:35:22;9.63;;;7.30;;
5428;SDS011;2737;52.386;9.980;2023-06-22T06:37:49;11.25;;;7.05;;
5428;SDS011;2737;52.386;9.980;2023-06-22T06:40:17;7.82;;;7.03;;
5428;SDS011;2737;52.386;9.980;2023-06-22T06:42:47;21.77;;;8.52;;
5428;SDS011;2737;52.386;9.980;2023-06-22T06:45:15;19.42;;;6.97;;
5428;SDS011;2737;52.386;9.980;2023-06-22T06:47:43;12.05;;;6.18;;
5428;SDS011;2737;52.386;9.980;2023-06-22T06:50:10;46.78;;;8.90;;
5428;SDS011;2737;52.386;9.980;2023-06-22T06:52:39;7.55;;;5.57;;
5428;SDS011;2737;52.386;9.980;2023-06-22T06:55:07;8.45;;;5.75;;
5428;SDS011;2737;52.386;9.980;2023-06-22T06:57:36;7.82;;;6.28;;
5428;SDS011;2737;52.386;9.980;2023-06-22T07:00:04;6.57;;;5.32;;
5428;SDS011;2737;52.386;9.980;2023-06-22T07:02:35;6.47;;;5.70;;
5428;SDS011;2737;52.386;9.980;2023-06-22T07:05:02;7.63;;;5.57;;
5428;SDS011;2737;52.386;9.980;2023-06-22T07:07:30;7.50;;;5.35;;
5428;SDS011;2737;52.386;9.980;2023-06-22T07:09:59;8.93;;;5.07;;
5428;SDS011;2737;52.386;9.980;2023-06-22T07:12:26;7.60;;;5.30;;
5428;SDS011;2737;52.386;9.980;2023-06-22T07:14:53;8.73;;;5.63;;
5428;SDS011;2737;52.386;9.980;2023-06-22T07:17:20;8.02;;;5.28;;
5428;SDS011;2737;52.386;9.980;2023-06-22T07:19:47;5.90;;;5.10;;
5428;SDS011;2737;52.386;9.980;2023-06-22T07:22:14;7.22;;;4.57;;
5428;SDS011;2737;52.386;9.980;2023-06-22T07:24:41;4.80;;;4.30;;
5428;SDS011;2737;52.386;9.980;2023-06-22T07:27:09;5.55;;;4.95;;
5428;SDS011;2737;52.386;9.980;2023-06-22T07:29:37;8.15;;;5.38;;
5428;SDS011;2737;52.386;9.980;2023-06-22T07:32:06;7.32;;;5.35;;
5428;SDS011;2737;52.386;9.980;2023-06-22T07:34:33;6.85;;;5.60;;
5428;SDS011;2737;52.386;9.980;2023-06-22T07:37:00;6.93;;;5.28;;
5428;SDS011;2737;52.386;9.980;2023-06-22T07:39:28;8.63;;;6.45;;
5428;SDS011;2737;52.386;9.980;2023-06-22T07:41:55;7.90;;;5.78;;
5428;SDS011;2737;52.386;9.980;2023-06-22T07:44:23;14.57;;;5.93;;
5428;SDS011;2737;52.386;9.980;2023-06-22T07:46:50;8.18;;;5.68;;
5428;SDS011;2737;52.386;9.980;2023-06-22T07:49:17;10.50;;;5.88;;
5428;SDS011;2737;52.386;9.980;2023-06-22T07:51:44;10.07;;;6.35;;
5428;SDS011;2737;52.386;9.980;2023-06-22T07:54:11;12.57;;;5.68;;
5428;SDS011;2737;52.386;9.980;2023-06-22T07:56:40;12.45;;;6.50;;
5428;SDS011;2737;52.386;9.980;2023-06-22T07:59:08;8.63;;;6.18;;
5428;SDS011;2737;52.386;9.980;2023-06-22T08:01:36;10.32;;;6.63;;
5428;SDS011;2737;52.386;9.980;2023-06-22T08:04:03;8.15;;;6.57;;
5428;SDS011;2737;52.386;9.980;2023-06-22T08:06:31;9.43;;;6.18;;
5428;SDS011;2737;52.386;9.980;2023-06-22T08:08:58;17.80;;;7.45;;
5428;SDS011;2737;52.386;9.980;2023-06-22T08:11:25;10.75;;;6.90;;
5428;SDS011;2737;52.386;9.980;2023-06-22T08:13:53;9.45;;;6.22;;
5428;SDS011;2737;52.386;9.980;2023-06-22T08:16:23;9.27;;;6.13;;
5428;SDS011;2737;52.386;9.980;2023-06-22T08:18:51;11.40;;;6.63;;
5428;SDS011;2737;52.386;9.980;2023-06-22T08:21:18;10.23;;;7.47;;
5428;SDS011;2737;52.386;9.980;2023-06-22T08:23:45;7.18;;;6.28;;
5428;SDS011;2737;52.386;9.980;2023-06-22T08:26:13;10.38;;;8.18;;
5428;SDS011;2737;52.386;9.980;2023-06-22T08:28:40;9.68;;;7.18;;
5428;SDS011;2737;52.386;9.980;2023-06-22T08:31:07;10.75;;;7.82;;
5428;SDS011;2737;52.386;9.980;2023-06-22T08:33:39;11.02;;;7.65;;
5428;SDS011;2737;52.386;9.980;2023-06-22T08:36:07;13.45;;;7.50;;
5428;SDS011;2737;52.386;9.980;2023-06-22T08:38:36;13.10;;;7.57;;
5428;SDS011;2737;52.386;9.980;2023-06-22T08:41:03;13.43;;;8.98;;
5428;SDS011;2737;52.386;9.980;2023-06-22T08:43:30;11.85;;;8.80;;
5428;SDS011;2737;52.386;9.980;2023-06-22T08:45:57;11.30;;;8.55;;
5428;SDS011;2737;52.386;9.980;2023-06-22T08:48:24;12.27;;;9.52;;
5428;SDS011;2737;52.386;9.980;2023-06-22T08:50:51;12.88;;;9.85;;
5428;SDS011;2737;52.386;9.980;2023-06-22T08:53:19;12.38;;;8.48;;
5428;SDS011;2737;52.386;9.980;2023-06-22T08:55:46;14.27;;;9.07;;
5428;SDS011;2737;52.386;9.980;2023-06-22T08:58:15;14.15;;;8.90;;
5428;SDS011;2737;52.386;9.980;2023-06-22T09:00:43;14.75;;;9.73;;
5428;SDS011;2737;52.386;9.980;2023-06-22T09:03:10;12.13;;;8.30;;
5428;SDS011;2737;52.386;9.980;2023-06-22T09:05:37;13.50;;;8.65;;
5428;SDS011;2737;52.386;9.980;2023-06-22T09:08:04;12.50;;;9.07;;
5428;SDS011;2737;52.386;9.980;2023-06-22T09:10:33;11.55;;;8.25;;
5428;SDS011;2737;52.386;9.980;2023-06-22T09:13:00;16.02;;;8.80;;
5428;SDS011;2737;52.386;9.980;2023-06-22T09:15:27;11.10;;;8.82;;
5428;SDS011;2737;52.386;9.980;2023-06-22T09:17:54;12.65;;;9.32;;
5428;SDS011;2737;52.386;9.980;2023-06-22T09:20:22;11.70;;;9.20;;
5428;SDS011;2737;52.386;9.980;2023-06-22T09:22:49;12.07;;;9.02;;
5428;SDS011;2737;52.386;9.980;2023-06-22T09:25:17;14.75;;;9.23;;
5428;SDS011;2737;52.386;9.980;2023-06-22T09:27:46;16.38;;;9.25;;
5428;SDS011;2737;52.386;9.980;2023-06-22T09:30:14;13.48;;;9.68;;
5428;SDS011;2737;52.386;9.980;2023-06-22T09:32:41;9.88;;;8.57;;
5428;SDS011;2737;52.386;9.980;2023-06-22T09:35:09;11.27;;;9.30;;
5428;SDS011;2737;52.386;9.980;2023-06-22T09:37:38;13.18;;;9.48;;
5428;SDS011;2737;52.386;9.980;2023-06-22T09:40:05;13.25;;;9.88;;
5428;SDS011;2737;52.386;9.980;2023-06-22T09:42:36;10.55;;;9.27;;
5428;SDS011;2737;52.386;9.980;2023-06-22T09:45:05;14.25;;;10.50;;
5428;SDS011;2737;52.386;9.980;2023-06-22T09:47:32;15.27;;;9.77;;
5428;SDS011;2737;52.386;9.980;2023-06-22T09:49:59;36.60;;;11.45;;
5428;SDS011;2737;52.386;9.980;2023-06-22T09:52:26;14.00;;;10.15;;
5428;SDS011;2737;52.386;9.980;2023-06-22T09:54:53;17.05;;;10.00;;
5428;SDS011;2737;52.386;9.980;2023-06-22T09:57:20;17.10;;;9.80;;
5428;SDS011;2737;52.386;9.980;2023-06-22T09:59:47;12.68;;;10.02;;
5428;SDS011;2737;52.386;9.980;2023-06-22T10:02:16;13.85;;;11.15;;
5428;SDS011;2737;52.386;9.980;2023-06-22T10:04:43;13.30;;;11.35;;
5428;SDS011;2737;52.386;9.980;2023-06-22T10:07:10;14.98;;;10.88;;
5428;SDS011;2737;52.386;9.980;2023-06-22T10:09:37;15.20;;;10.07;;
5428;SDS011;2737;52.386;9.980;2023-06-22T10:12:04;18.08;;;11.57;;
5428;SDS011;2737;52.386;9.980;2023-06-22T10:14:32;14.88;;;10.57;;
5428;SDS011;2737;52.386;9.980;2023-06-22T10:16:59;18.33;;;13.02;;
5428;SDS011;2737;52.386;9.980;2023-06-22T10:19:27;12.63;;;9.52;;
5428;SDS011;2737;52.386;9.980;2023-06-22T10:21:54;14.30;;;10.80;;
5428;SDS011;2737;52.386;9.980;2023-06-22T10:24:21;14.23;;;10.90;;
5428;SDS011;2737;52.386;9.980;2023-06-22T10:26:48;15.93;;;10.25;;
5428;SDS011;2737;52.386;9.980;2023-06-22T10:29:15;17.77;;;9.95;;
5428;SDS011;2737;52.386;9.980;2023-06-22T10:31:43;13.35;;;10.60;;
5428;SDS011;2737;52.386;9.980;2023-06-22T10:34:10;12.32;;;10.93;;
5428;SDS011;2737;52.386;9.980;2023-06-22T10:36:39;13.43;;;11.23;;
5428;SDS011;2737;52.386;9.980;2023-06-22T10:39:06;18.50;;;9.93;;
5428;SDS011;2737;52.386;9.980;2023-06-22T10:41:33;13.35;;;11.68;;
5428;SDS011;2737;52.386;9.980;2023-06-22T10:44:01;15.70;;;10.73;;
5428;SDS011;2737;52.386;9.980;2023-06-22T10:46:28;14.30;;;10.50;;
5428;SDS011;2737;52.386;9.980;2023-06-22T10:48:55;15.50;;;9.57;;
5428;SDS011;2737;52.386;9.980;2023-06-22T10:51:23;13.13;;;10.07;;
5428;SDS011;2737;52.386;9.980;2023-06-22T10:53:52;13.60;;;9.52;;
5428;SDS011;2737;52.386;9.980;2023-06-22T10:56:19;12.60;;;9.73;;
5428;SDS011;2737;52.386;9.980;2023-06-22T10:58:46;14.15;;;10.68;;
5428;SDS011;2737;52.386;9.980;2023-06-22T11:01:13;13.45;;;9.55;;
5428;SDS011;2737;52.386;9.980;2023-06-22T11:03:40;12.68;;;10.27;;
5428;SDS011;2737;52.386;9.980;2023-06-22T11:06:07;13.15;;;9.70;;
5428;SDS011;2737;52.386;9.980;2023-06-22T11:08:34;16.33;;;10.10;;
5428;SDS011;2737;52.386;9.980;2023-06-22T11:11:02;24.40;;;11.02;;
5428;SDS011;2737;52.386;9.980;2023-06-22T11:13:29;12.80;;;10.02;;
5428;SDS011;2737;52.386;9.980;2023-06-22T11:15:56;13.20;;;10.70;;
5428;SDS011;2737;52.386;9.980;2023-06-22T11:18:23;18.13;;;10.68;;
5428;SDS011;2737;52.386;9.980;2023-06-22T11:20:50;14.20;;;9.52;;
5428;SDS011;2737;52.386;9.980;2023-06-22T11:23:18;16.70;;;10.98;;
5428;SDS011;2737;52.386;9.980;2023-06-22T11:25:45;12.60;;;10.40;;
5428;SDS011;2737;52.386;9.980;2023-06-22T11:28:13;13.90;;;10.60;;
5428;SDS011;2737;52.386;9.980;2023-06-22T11:30:40;14.00;;;9.57;;
5428;SDS011;2737;52.386;9.980;2023-06-22T11:33:07;14.57;;;9.80;;
5428;SDS011;2737;52.386;9.980;2023-06-22T11:35:34;12.10;;;9.85;;
5428;SDS011;2737;52.386;9.980;2023-06-22T11:38:01;17.27;;;11.23;;
5428;SDS011;2737;52.386;9.980;2023-06-22T11:40:29;10.77;;;9.63;;
5428;SDS011;2737;52.386;9.980;2023-06-22T11:42:56;27.88;;;12.25;;
5428;SDS011;2737;52.386;9.980;2023-06-22T11:45:25;13.77;;;10.20;;
5428;SDS011;2737;52.386;9.980;2023-06-22T11:47:53;14.68;;;10.93;;
5428;SDS011;2737;52.386;9.980;2023-06-22T11:50:20;28.63;;;12.70;;
5428;SDS011;2737;52.386;9.980;2023-06-22T11:52:47;15.35;;;10.93;;
5428;SDS011;2737;52.386;9.980;2023-06-22T11:55:14;13.07;;;10.30;;
5428;SDS011;2737;52.386;9.980;2023-06-22T11:57:52;15.93;;;10.50;;
5428;SDS011;2737;52.386;9.980;2023-06-22T12:00:20;15.40;;;10.23;;
5428;SDS011;2737;52.386;9.980;2023-06-22T12:02:50;16.30;;;11.05;;
5428;SDS011;2737;52.386;9.980;2023-06-22T12:05:18;22.48;;;9.93;;
5428;SDS011;2737;52.386;9.980;2023-06-22T12:07:46;15.43;;;10.95;;
5428;SDS011;2737;52.386;9.980;2023-06-22T12:10:13;15.73;;;11.35;;
5428;SDS011;2737;52.386;9.980;2023-06-22T12:12:40;11.57;;;10.07;;
5428;SDS011;2737;52.386;9.980;2023-06-22T12:15:08;15.68;;;10.20;;
5428;SDS011;2737;52.386;9.980;2023-06-22T12:17:36;16.90;;;10.23;;
5428;SDS011;2737;52.386;9.980;2023-06-22T12:20:05;12.98;;;10.27;;
5428;SDS011;2737;52.386;9.980;2023-06-22T12:22:33;11.65;;;10.27;;
5428;SDS011;2737;52.386;9.980;2023-06-22T12:25:02;11.10;;;9.95;;
5428;SDS011;2737;52.386;9.980;2023-06-22T12:27:30;19.23;;;11.20;;
5428;SDS011;2737;52.386;9.980;2023-06-22T12:29:57;11.75;;;8.85;;
5428;SDS011;2737;52.386;9.980;2023-06-22T12:32:24;13.57;;;9.70;;
5428;SDS011;2737;52.386;9.980;2023-06-22T12:34:51;11.15;;;8.57;;
5428;SDS011;2737;52.386;9.980;2023-06-22T12:37:20;11.55;;;8.32;;
5428;SDS011;2737;52.386;9.980;2023-06-22T12:39:47;12.15;;;9.10;;
5428;SDS011;2737;52.386;9.980;2023-06-22T12:42:14;15.43;;;8.82;;
5428;SDS011;2737;52.386;9.980;2023-06-22T12:44:41;12.55;;;8.73;;
5428;SDS011;2737;52.386;9.980;2023-06-22T12:47:09;11.55;;;9.40;;
5428;SDS011;2737;52.386;9.980;2023-06-22T12:49:36;14.15;;;8.88;;
5428;SDS011;2737;52.386;9.980;2023-06-22T12:52:08;9.70;;;8.32;;
5428;SDS011;2737;52.386;9.980;2023-06-22T12:54:37;10.57;;;9.02;;
5428;SDS011;2737;52.386;9.980;2023-06-22T12:57:04;10.80;;;9.25;;
5428;SDS011;2737;52.386;9.980;2023-06-22T12:59:31;13.85;;;9.05;;
5428;SDS011;2737;52.386;9.980;2023-06-22T13:01:58;12.43;;;8.82;;
5428;SDS011;2737;52.386;9.980;2023-06-22T13:04:25;8.23;;;7.38;;
5428;SDS011;2737;52.386;9.980;2023-06-22T13:06:52;11.70;;;8.88;;
5428;SDS011;2737;52.386;9.980;2023-06-22T13:09:19;13.10;;;8.48;;
5428;SDS011;2737;52.386;9.980;2023-06-22T13:11:48;18.40;;;8.23;;
5428;SDS011;2737;52.386;9.980;2023-06-22T13:14:15;11.65;;;9.20;;
5428;SDS011;2737;52.386;9.980;2023-06-22T13:16:42;14.80;;;9.32;;
5428;SDS011;2737;52.386;9.980;2023-06-22T13:19:09;13.57;;;9.27;;
5428;SDS011;2737;52.386;9.980;2023-06-22T13:21:36;12.45;;;9.25;;
5428;SDS011;2737;52.386;9.980;2023-06-22T13:24:04;13.45;;;9.90;;
5428;SDS011;2737;52.386;9.980;2023-06-22T13:26:32;12.30;;;8.90;;
5428;SDS011;2737;52.386;9.980;2023-06-22T13:29:01;11.10;;;9.73;;
5428;SDS011;2737;52.386;9.980;2023-06-22T13:31:28;17.92;;;9.88;;
5428;SDS011;2737;52.386;9.980;2023-06-22T13:33:55;12.88;;;10.10;;
5428;SDS011;2737;52.386;9.980;2023-06-22T13:36:22;16.13;;;11.20;;
5428;SDS011;2737;52.386;9.980;2023-06-22T13:38:49;17.77;;;10.63;;
5428;SDS011;2737;52.386;9.980;2023-06-22T13:41:16;13.73;;;11.25;;
5428;SDS011;2737;52.386;9.980;2023-06-22T13:43:43;19.23;;;10.65;;
5428;SDS011;2737;52.386;9.980;2023-06-22T13:46:11;11.68;;;10.43;;
5428;SDS011;2737;52.386;9.980;2023-06-22T13:48:38;10.50;;;9.07;;
5428;SDS011;2737;52.386;9.980;2023-06-22T13:51:05;14.52;;;10.43;;
5428;SDS011;2737;52.386;9.980;2023-06-22T13:53:32;11.93;;;8.85;;
5428;SDS011;2737;52.386;9.980;2023-06-22T13:56:00;11.65;;;9.13;;
5428;SDS011;2737;52.386;9.980;2023-06-22T13:58:27;10.88;;;9.70;;
5428;SDS011;2737;52.386;9.980;2023-06-22T14:00:54;10.77;;;9.00;;
5428;SDS011;2737;52.386;9.980;2023-06-22T14:03:22;10.75;;;9.05;;
5428;SDS011;2737;52.386;9.980;2023-06-22T14:05:50;14.75;;;9.90;;
5428;SDS011;2737;52.386;9.980;2023-06-22T14:08:19;11.77;;;9.70;;
5428;SDS011;2737;52.386;9.980;2023-06-22T14:10:48;12.98;;;10.45;;
5428;SDS011;2737;52.386;9.980;2023-06-22T14:13:15;13.00;;;9.93;;
5428;SDS011;2737;52.386;9.980;2023-06-22T14:15:42;11.13;;;9.00;;
5428;SDS011;2737;52.386;9.980;2023-06-22T14:18:09;11.07;;;9.55;;
5428;SDS011;2737;52.386;9.980;2023-06-22T14:20:38;12.77;;;10.10;;
5428;SDS011;2737;52.386;9.980;2023-06-22T14:23:05;14.43;;;11.25;;
5428;SDS011;2737;52.386;9.980;2023-06-22T14:25:32;11.55;;;10.35;;
5428;SDS011;2737;52.386;9.980;2023-06-22T14:27:59;13.90;;;10.38;;
5428;SDS011;2737;52.386;9.980;2023-06-22T14:30:26;15.45;;;11.27;;
5428;SDS011;2737;52.386;9.980;2023-06-22T14:32:53;18.40;;;10.57;;
5428;SDS011;2737;52.386;9.980;2023-06-22T14:35:20;14.85;;;12.32;;
5428;SDS011;2737;52.386;9.980;2023-06-22T14:37:48;13.35;;;11.20;;
5428;SDS011;2737;52.386;9.980;2023-06-22T14:40:15;14.35;;;10.93;;
5428;SDS011;2737;52.386;9.980;2023-06-22T14:42:42;11.70;;;10.50;;
5428;SDS011;2737;52.386;9.980;2023-06-22T14:45:09;14.65;;;11.77;;
5428;SDS011;2737;52.386;9.980;2023-06-22T14:47:37;12.02;;;10.73;;
5428;SDS011;2737;52.386;9.980;2023-06-22T14:50:05;14.02;;;11.45;;
5428;SDS011;2737;52.386;9.980;2023-06-22T14:52:32;11.65;;;9.98;;
5428;SDS011;2737;52.386;9.980;2023-06-22T14:55:00;12.52;;;11.23;;
5428;SDS011;2737;52.386;9.980;2023-06-22T14:57:28;13.02;;;11.57;;
5428;SDS011;2737;52.386;9.980;2023-06-22T14:59:55;13.38;;;11.02;;
5428;SDS011;2737;52.386;9.980;2023-06-22T15:02:22;13.98;;;10.23;;